createdAt,value
2019-04-21T00:02:22.036Z,5.85
2019-04-21T00:04:56.893Z,5.62
2019-04-21T00:07:31.391Z,6.37
2019-04-21T00:10:18.746Z,6.50
2019-04-21T00:12:48.938Z,6.95
2019-04-21T00:15:09.761Z,6.33
2019-04-21T00:17:29.571Z,5.70
2019-04-21T00:20:09.031Z,6.58
2019-04-21T00:22:41.308Z,6.03
2019-04-21T00:25:32.134Z,6.80
2019-04-21T00:28:04.714Z,6.60
2019-04-21T00:30:58.102Z,5.92
2019-04-21T00:33:09.140Z,6.80
2019-04-21T00:35:41.378Z,6.40
2019-04-21T00:38:22.802Z,8.03
2019-04-21T00:41:14.373Z,7.40
2019-04-21T00:43:33.588Z,8.05
2019-04-21T00:45:57.798Z,8.05
2019-04-21T00:48:34.383Z,8.15
2019-04-21T00:51:16.599Z,6.95
2019-04-21T00:56:23.234Z,8.48
2019-04-21T00:59:06.874Z,8.50
2019-04-21T01:01:31.229Z,7.37
2019-04-21T01:04:23.605Z,7.08
2019-04-21T01:06:55.914Z,7.42
2019-04-21T01:09:22.516Z,8.23
2019-04-21T01:11:51.878Z,8.00
2019-04-21T01:14:31.511Z,8.48
2019-04-21T01:16:55.990Z,8.20
2019-04-21T01:19:17.262Z,7.58
2019-04-21T01:21:24.053Z,8.35
2019-04-21T01:23:50.875Z,8.83
2019-04-21T01:26:31.139Z,8.05
2019-04-21T01:29:01.272Z,9.58
2019-04-21T01:31:34.902Z,8.35
2019-04-21T01:34:03.262Z,8.25
2019-04-21T01:36:33.784Z,8.35
2019-04-21T01:39:05.309Z,9.78
2019-04-21T01:41:35.619Z,8.93
2019-04-21T01:43:54.533Z,7.65
2019-04-21T01:46:25.747Z,7.53
2019-04-21T01:48:49.533Z,7.03
2019-04-21T01:51:23.593Z,8.15
2019-04-21T01:54:16.016Z,7.58
2019-04-21T01:56:46.579Z,6.95
2019-04-21T01:59:30.562Z,7.83
2019-04-21T02:02:05.842Z,8.35
2019-04-21T02:04:41.235Z,8.55
2019-04-21T02:07:05.070Z,7.80
2019-04-21T02:12:31.453Z,9.08
2019-04-21T02:15:20.280Z,8.33
2019-04-21T02:17:42.131Z,8.15
2019-04-21T02:19:51.855Z,8.23
2019-04-21T02:22:28.741Z,7.58
2019-04-21T02:24:58.365Z,7.78
2019-04-21T02:27:27.491Z,8.10
2019-04-21T02:29:58.482Z,7.97
2019-04-21T02:32:24.365Z,8.00
2019-04-21T02:35:02.323Z,9.53
2019-04-21T02:37:36.756Z,9.90
2019-04-21T02:40:04.672Z,10.38
2019-04-21T02:42:24.222Z,9.08
2019-04-21T02:44:52.260Z,11.33
2019-04-21T02:47:27.456Z,10.28
2019-04-21T02:52:25.135Z,10.00
2019-04-21T02:59:50.463Z,9.13
2019-04-21T03:05:41.748Z,7.72
2019-04-21T03:08:09.883Z,8.18
2019-04-21T03:12:54.844Z,8.43
2019-04-21T03:15:33.181Z,9.18
2019-04-21T03:17:59.827Z,9.38
2019-04-21T03:20:23.430Z,9.43
2019-04-21T03:22:53.516Z,8.53
2019-04-21T03:27:56.957Z,10.10
2019-04-21T03:35:54.197Z,11.05
2019-04-21T03:37:39.830Z,11.12
2019-04-21T03:40:14.950Z,11.45
2019-04-21T03:42:42.369Z,10.60
2019-04-21T03:45:12.768Z,11.03
2019-04-21T03:47:38.390Z,10.82
2019-04-21T03:50:14.660Z,11.10
2019-04-21T03:52:38.785Z,11.38
2019-04-21T04:00:44.950Z,11.38
2019-04-21T04:11:43.755Z,9.78
2019-04-21T04:14:14.134Z,10.45
2019-04-21T04:16:37.631Z,10.82
2019-04-21T04:19:09.436Z,10.88
2019-04-21T04:21:45.117Z,10.35
2019-04-21T04:24:05.036Z,10.88
2019-04-21T04:26:39.452Z,9.90
2019-04-21T04:31:41.753Z,10.48
2019-04-21T04:39:26.122Z,11.03
2019-04-21T04:42:16.347Z,10.78
2019-04-21T04:44:46.592Z,10.80
2019-04-21T04:47:22.987Z,11.35
2019-04-21T04:49:54.950Z,10.82
2019-04-21T05:04:54.859Z,10.35
2019-04-21T05:07:17.458Z,11.38
2019-04-21T05:09:39.099Z,10.40
2019-04-21T05:12:06.005Z,10.95
2019-04-21T05:14:39.620Z,11.73
2019-04-21T05:17:02.555Z,10.93
2019-04-21T05:19:30.483Z,10.43
2019-04-21T05:22:04.948Z,10.65
2019-04-21T05:24:24.005Z,10.70
2019-04-21T05:26:48.010Z,9.63
2019-04-21T05:32:26.837Z,10.75
2019-04-21T05:37:33.276Z,10.40
2019-04-21T05:39:57.422Z,11.18
2019-04-21T05:42:25.275Z,11.22
2019-04-21T05:45:29.417Z,11.40
2019-04-21T05:47:58.033Z,10.90
2019-04-21T05:50:19.415Z,10.40
2019-04-21T05:53:00.229Z,11.90
2019-04-21T05:55:57.085Z,11.18
2019-04-21T05:58:05.664Z,10.72
2019-04-21T06:00:55.601Z,11.12
2019-04-21T06:03:03.725Z,10.85
2019-04-21T06:08:08.173Z,10.55
2019-04-21T06:10:34.640Z,10.72
2019-04-21T06:13:05.614Z,10.32
2019-04-21T06:15:34.498Z,10.32
2019-04-21T06:17:57.165Z,10.55
2019-04-21T06:20:27.216Z,9.85
2019-04-21T06:23:00.699Z,10.75
2019-04-21T06:27:57.190Z,10.87
2019-04-21T06:30:29.015Z,10.75
2019-04-21T06:32:52.769Z,10.60
2019-04-21T06:36:10.186Z,9.88
2019-04-21T06:38:16.587Z,10.20
2019-04-21T06:40:46.105Z,10.45
2019-04-21T06:43:17.952Z,10.88
2019-04-21T06:45:41.257Z,10.60
2019-04-21T06:48:10.960Z,9.98
2019-04-21T06:50:40.085Z,10.72
2019-04-21T06:53:10.707Z,10.43
2019-04-21T06:55:37.804Z,11.12
2019-04-21T06:58:00.679Z,10.90
2019-04-21T07:00:26.633Z,10.95
2019-04-21T07:03:08.441Z,11.60
2019-04-21T07:05:33.617Z,11.33
2019-04-21T07:08:16.780Z,11.25
2019-04-21T07:10:26.627Z,11.43
2019-04-21T07:12:51.942Z,12.03
2019-04-21T07:15:28.360Z,11.70
2019-04-21T07:17:54.031Z,12.28
2019-04-21T07:20:36.787Z,12.53
2019-04-21T07:22:50.542Z,12.70
2019-04-21T07:25:33.086Z,11.43
2019-04-21T07:27:49.485Z,12.37
2019-04-21T07:30:20.885Z,12.45
2019-04-21T07:32:49.741Z,12.73
2019-04-21T07:35:17.184Z,12.40
2019-04-21T07:37:41.332Z,12.37
2019-04-21T07:40:07.901Z,12.70
2019-04-21T07:42:56.135Z,12.90
2019-04-21T07:45:25.390Z,12.40
2019-04-21T07:48:01.930Z,12.33
2019-04-21T07:50:38.906Z,12.47
2019-04-21T07:53:23.031Z,12.37
2019-04-21T07:58:12.947Z,12.18
2019-04-21T08:03:14.184Z,12.50
2019-04-21T08:05:51.029Z,12.75
2019-04-21T08:08:12.073Z,13.28
2019-04-21T08:10:32.738Z,12.98
2019-04-21T08:13:09.902Z,12.73
2019-04-21T08:15:40.281Z,13.10
2019-04-21T08:18:09.210Z,12.80
2019-04-21T08:20:54.947Z,13.83
2019-04-21T08:23:29.374Z,13.43
2019-04-21T08:26:03.670Z,14.00
2019-04-21T08:28:24.089Z,14.07
2019-04-21T08:30:47.334Z,13.55
2019-04-21T08:33:30.595Z,12.97
2019-04-21T08:38:13.553Z,13.38
2019-04-21T08:40:40.912Z,13.68
2019-04-21T08:43:20.503Z,12.45
2019-04-21T08:45:45.289Z,12.70
2019-04-21T08:48:10.237Z,13.53
2019-04-21T08:50:37.411Z,12.63
2019-04-21T08:53:07.945Z,13.32
2019-04-21T08:55:49.293Z,11.93
2019-04-21T08:58:24.000Z,11.43
2019-04-21T09:01:09.219Z,11.20
2019-04-21T09:03:56.479Z,10.93
2019-04-21T09:06:40.392Z,10.38
2019-04-21T09:08:55.198Z,11.50
2019-04-21T09:11:17.698Z,11.10
2019-04-21T09:13:50.689Z,10.20
2019-04-21T09:16:15.394Z,11.30
2019-04-21T09:18:41.500Z,11.38
2019-04-21T09:21:19.494Z,10.23
2019-04-21T09:23:45.244Z,11.68
2019-04-21T09:26:14.090Z,10.95
2019-04-21T09:28:37.074Z,12.35
2019-04-21T09:30:57.327Z,11.12
2019-04-21T09:33:20.813Z,11.48
2019-04-21T09:35:55.555Z,11.83
2019-04-21T09:38:27.575Z,12.20
2019-04-21T09:40:48.979Z,10.87
2019-04-21T09:43:19.232Z,11.75
2019-04-21T09:45:43.039Z,11.53
2019-04-21T09:48:16.460Z,11.35
2019-04-21T09:50:39.715Z,10.73
2019-04-21T09:53:18.151Z,11.73
2019-04-21T09:55:45.251Z,11.70
2019-04-21T09:58:15.169Z,11.53
2019-04-21T10:00:46.342Z,10.87
2019-04-21T10:03:08.401Z,12.68
2019-04-21T10:05:31.692Z,11.55
2019-04-21T10:08:01.061Z,11.15
2019-04-21T10:10:27.615Z,10.87
2019-04-21T10:12:54.564Z,11.35
2019-04-21T10:15:24.250Z,11.22
2019-04-21T10:17:56.199Z,10.75
2019-04-21T10:20:24.401Z,10.45
2019-04-21T10:22:51.479Z,10.60
2019-04-21T10:25:18.709Z,11.33
2019-04-21T10:27:45.791Z,10.50
2019-04-21T10:30:14.379Z,10.03
2019-04-21T10:32:42.681Z,11.07
2019-04-21T10:35:10.788Z,10.50
2019-04-21T10:37:49.838Z,10.85
2019-04-21T10:40:07.664Z,10.38
2019-04-21T10:42:35.475Z,10.75
2019-04-21T10:45:03.323Z,10.93
2019-04-21T10:47:31.289Z,10.10
2019-04-21T10:49:58.374Z,9.18
2019-04-21T10:52:43.187Z,9.48
2019-04-21T10:55:28.974Z,10.70
2019-04-21T10:57:40.677Z,9.08
2019-04-21T11:00:17.573Z,10.18
2019-04-21T11:02:48.835Z,10.82
2019-04-21T11:05:16.736Z,9.28
2019-04-21T11:08:02.479Z,10.35
2019-04-21T11:10:16.466Z,10.53
2019-04-21T11:12:44.736Z,10.20
2019-04-21T11:15:12.089Z,10.70
2019-04-21T11:17:40.681Z,8.75
2019-04-21T11:20:08.799Z,9.75
2019-04-21T11:22:36.922Z,9.70
2019-04-21T11:25:04.910Z,9.33
2019-04-21T11:27:33.176Z,9.15
2019-04-21T11:29:59.871Z,9.28
2019-04-21T11:32:27.356Z,9.60
2019-04-21T11:34:54.913Z,8.43
2019-04-21T11:37:28.157Z,9.25
2019-04-21T11:40:00.150Z,10.38
2019-04-21T11:42:30.042Z,9.85
2019-04-21T11:44:57.561Z,10.03
2019-04-21T11:47:30.331Z,11.78
2019-04-21T11:49:57.211Z,10.48
2019-04-21T11:52:25.051Z,11.25
2019-04-21T11:54:53.054Z,11.78
2019-04-21T11:57:24.828Z,11.25
2019-04-21T11:59:48.649Z,10.88
2019-04-21T12:02:15.462Z,10.20
2019-04-21T12:04:43.408Z,10.53
2019-04-21T12:07:11.378Z,10.53
2019-04-21T12:09:39.487Z,9.60
2019-04-21T12:12:07.459Z,10.28
2019-04-21T12:14:34.388Z,9.33
2019-04-21T12:17:01.128Z,9.70
2019-04-21T12:19:30.566Z,10.20
2019-04-21T12:22:08.117Z,10.18
2019-04-21T12:24:30.000Z,8.75
2019-04-21T12:26:56.072Z,8.38
2019-04-21T12:29:22.846Z,9.30
2019-04-21T12:32:05.792Z,10.55
2019-04-21T12:34:34.176Z,8.48
2019-04-21T12:37:01.236Z,8.88
2019-04-21T12:39:28.112Z,8.50
2019-04-21T12:41:56.082Z,8.83
2019-04-21T12:44:24.317Z,7.75
2019-04-21T12:46:51.976Z,8.00
2019-04-21T12:49:19.979Z,8.13
2019-04-21T12:51:48.055Z,7.97
2019-04-21T12:54:15.482Z,8.40
2019-04-21T12:56:43.331Z,8.00
2019-04-21T12:59:12.122Z,7.83
2019-04-21T13:01:39.075Z,7.45
2019-04-21T13:04:05.995Z,8.48
2019-04-21T13:06:33.837Z,8.03
2019-04-21T13:09:05.248Z,8.70
2019-04-21T13:11:30.880Z,8.33
2019-04-21T13:13:57.865Z,9.00
2019-04-21T13:16:25.435Z,7.58
2019-04-21T13:18:53.423Z,7.37
2019-04-21T13:21:20.422Z,7.25
2019-04-21T13:23:47.335Z,7.22
2019-04-21T13:26:15.093Z,7.47
2019-04-21T13:28:42.858Z,8.37
2019-04-21T13:31:09.651Z,8.18
2019-04-21T13:33:37.740Z,6.90
2019-04-21T13:36:07.523Z,6.67
2019-04-21T13:38:42.726Z,8.38
2019-04-21T13:41:40.868Z,8.68
2019-04-21T13:44:11.045Z,8.85
2019-04-21T13:46:38.676Z,7.60
2019-04-21T13:49:05.520Z,7.80
2019-04-21T13:51:32.307Z,7.42
2019-04-21T13:53:59.676Z,8.13
2019-04-21T13:56:46.916Z,7.65
2019-04-21T13:59:14.117Z,6.78
2019-04-21T14:01:41.393Z,7.60
2019-04-21T14:04:09.547Z,8.00
2019-04-21T14:06:36.557Z,7.67
2019-04-21T14:09:07.689Z,7.75
2019-04-21T14:11:35.478Z,8.05
2019-04-21T14:14:02.677Z,8.40
2019-04-21T14:16:29.876Z,7.42
2019-04-21T14:18:59.212Z,8.18
2019-04-21T14:21:27.243Z,7.53
2019-04-21T14:23:54.633Z,8.90
2019-04-21T14:26:22.720Z,8.43
2019-04-21T14:28:49.429Z,8.33
2019-04-21T14:31:16.608Z,8.40
2019-04-21T14:33:43.748Z,8.90
2019-04-21T14:36:10.740Z,10.00
2019-04-21T14:38:38.624Z,10.40
2019-04-21T14:41:06.151Z,10.18
2019-04-21T14:43:34.116Z,9.75
2019-04-21T14:46:09.346Z,10.05
2019-04-21T14:49:01.481Z,9.75
2019-04-21T14:51:37.016Z,9.50
2019-04-21T14:54:36.484Z,10.23
2019-04-21T14:57:05.196Z,9.75
2019-04-21T14:59:33.254Z,9.48
2019-04-21T15:02:01.994Z,9.45
2019-04-21T15:04:29.064Z,9.43
2019-04-21T15:06:56.985Z,8.40
2019-04-21T15:09:25.272Z,9.95
2019-04-21T15:11:52.132Z,8.68
2019-04-21T15:14:20.103Z,8.60
2019-04-21T15:16:47.127Z,8.83
2019-04-21T15:19:14.795Z,8.73
2019-04-21T15:21:42.512Z,9.33
2019-04-21T15:24:09.450Z,8.95
2019-04-21T15:26:36.262Z,9.60
2019-04-21T15:29:03.354Z,8.68
2019-04-21T15:31:34.814Z,10.93
2019-04-21T15:34:01.230Z,9.68
2019-04-21T15:36:31.550Z,9.58
2019-04-21T15:38:57.940Z,9.65
2019-04-21T15:41:24.947Z,10.35
2019-04-21T15:43:51.736Z,9.93
2019-04-21T15:46:18.564Z,9.48
2019-04-21T15:48:45.112Z,10.32
2019-04-21T15:51:11.933Z,10.00
2019-04-21T15:53:39.623Z,9.85
2019-04-21T15:56:17.371Z,8.85
2019-04-21T15:59:16.635Z,10.70
2019-04-21T16:01:50.649Z,15.20
2019-04-21T16:04:18.852Z,10.88
2019-04-21T16:06:45.854Z,12.10
2019-04-21T16:09:20.962Z,13.03
2019-04-21T16:11:42.048Z,11.03
2019-04-21T16:14:10.143Z,10.82
2019-04-21T16:16:37.188Z,11.00
2019-04-21T16:19:04.075Z,11.97
2019-04-21T16:21:31.802Z,12.05
2019-04-21T16:24:00.467Z,11.68
2019-04-21T16:26:28.774Z,12.18
2019-04-21T16:28:55.694Z,11.63
2019-04-21T16:31:22.585Z,12.03
2019-04-21T16:33:49.288Z,11.80
2019-04-21T16:36:17.098Z,11.43
2019-04-21T16:38:44.796Z,12.05
2019-04-21T16:41:12.131Z,11.73
2019-04-21T16:43:38.994Z,11.93
2019-04-21T16:46:06.851Z,13.43
2019-04-21T16:48:33.899Z,12.60
2019-04-21T16:51:01.665Z,13.53
2019-04-21T16:53:35.508Z,10.70
2019-04-21T16:56:17.781Z,11.20
2019-04-21T16:58:48.379Z,11.95
2019-04-21T17:01:25.695Z,12.75
2019-04-21T17:03:52.921Z,22.80
2019-04-21T17:06:19.731Z,11.05
2019-04-21T17:08:47.157Z,11.12
2019-04-21T17:11:21.627Z,10.43
2019-04-21T17:13:42.815Z,16.15
2019-04-21T17:16:38.643Z,13.43
2019-04-21T17:18:52.822Z,16.95
2019-04-21T17:21:08.510Z,10.35
2019-04-21T17:23:35.617Z,11.85
2019-04-21T17:26:03.373Z,12.58
2019-04-21T17:28:30.326Z,14.95
2019-04-21T17:30:58.157Z,11.43
2019-04-21T17:33:27.995Z,10.32
2019-04-21T17:35:56.421Z,11.15
2019-04-21T17:38:23.996Z,12.00
2019-04-21T17:40:51.789Z,11.70
2019-04-21T17:43:19.837Z,11.38
2019-04-21T17:45:46.799Z,10.48
2019-04-21T17:48:16.243Z,12.00
2019-04-21T17:51:31.926Z,10.43
2019-04-21T17:54:08.247Z,9.68
2019-04-21T17:56:59.566Z,10.10
2019-04-21T17:59:28.043Z,13.98
2019-04-21T18:01:49.966Z,10.20
2019-04-21T18:04:21.220Z,9.58
2019-04-21T18:07:02.374Z,10.88
2019-04-21T18:09:44.110Z,10.55
2019-04-21T18:12:24.108Z,10.10
2019-04-21T18:14:36.773Z,10.93
2019-04-21T18:17:04.550Z,11.00
2019-04-21T18:19:36.377Z,11.63
2019-04-21T18:22:09.059Z,11.78
2019-04-21T18:24:47.845Z,8.53
2019-04-21T18:27:09.200Z,19.75
2019-04-21T18:29:36.593Z,11.53
2019-04-21T18:32:03.771Z,9.10
2019-04-21T18:34:56.268Z,11.22
2019-04-21T18:37:45.755Z,11.28
2019-04-21T18:40:18.781Z,17.52
2019-04-21T18:43:05.545Z,9.68
2019-04-21T18:46:00.679Z,7.58
2019-04-21T18:48:30.627Z,9.15
2019-04-21T18:51:34.903Z,10.30
2019-04-21T18:54:22.675Z,11.22
2019-04-21T18:56:29.551Z,9.10
2019-04-21T18:58:56.557Z,11.97
2019-04-21T19:01:27.745Z,9.98
2019-04-21T19:03:55.652Z,13.05
2019-04-21T19:06:40.770Z,13.00
2019-04-21T19:09:11.989Z,7.87
2019-04-21T19:11:35.961Z,9.25
2019-04-21T19:19:41.243Z,9.50
2019-04-21T19:21:55.485Z,9.33
2019-04-21T19:29:24.084Z,9.00
2019-04-21T19:31:49.268Z,9.95
2019-04-21T19:34:08.402Z,10.13
2019-04-21T19:36:30.439Z,8.20
2019-04-21T19:39:06.769Z,9.45
2019-04-21T19:41:34.249Z,12.00
2019-04-21T19:44:13.358Z,11.95
2019-04-21T19:46:35.688Z,8.95
2019-04-21T19:49:16.896Z,12.20
2019-04-21T19:51:33.931Z,10.15
2019-04-21T19:54:00.709Z,14.43
2019-04-21T19:56:18.547Z,16.50
2019-04-21T19:58:47.429Z,13.03
2019-04-21T20:01:14.237Z,7.80
2019-04-21T20:03:43.089Z,7.28
2019-04-21T20:06:22.187Z,6.53
2019-04-21T20:09:02.358Z,8.00
2019-04-21T20:11:28.182Z,7.50
2019-04-21T20:14:03.315Z,7.60
2019-04-21T20:16:23.085Z,6.40
2019-04-21T20:18:40.424Z,14.43
2019-04-21T20:21:02.010Z,8.15
2019-04-21T20:23:34.825Z,7.28
2019-04-21T20:26:02.286Z,6.67
2019-04-21T20:28:36.899Z,7.40
2019-04-21T20:31:14.724Z,7.40
2019-04-21T20:36:20.096Z,7.60
2019-04-21T20:38:34.046Z,7.90
2019-04-21T20:40:59.128Z,7.53
2019-04-21T20:43:36.557Z,7.62
2019-04-21T20:46:02.401Z,7.35
2019-04-21T20:48:29.628Z,7.72
2019-04-21T20:51:00.347Z,7.97
2019-04-21T20:53:31.378Z,7.67
2019-04-21T20:55:52.783Z,7.33
2019-04-21T20:58:30.336Z,10.28
2019-04-21T21:01:18.990Z,7.87
2019-04-21T21:03:24.748Z,8.45
2019-04-21T21:05:49.378Z,9.25
2019-04-21T21:08:24.630Z,9.33
2019-04-21T21:10:43.863Z,7.80
2019-04-21T21:13:26.421Z,8.48
2019-04-21T21:15:51.371Z,8.18
2019-04-21T21:18:27.067Z,9.00
2019-04-21T21:20:49.659Z,8.75
2019-04-21T21:23:09.489Z,9.08
2019-04-21T21:25:46.227Z,9.90
2019-04-21T21:28:04.365Z,10.32
2019-04-21T21:30:34.632Z,10.10
2019-04-21T21:33:11.289Z,10.48
2019-04-21T21:35:30.381Z,10.28
2019-04-21T21:38:06.762Z,10.08
2019-04-21T21:40:30.471Z,10.00
2019-04-21T21:42:48.078Z,9.78
2019-04-21T21:45:18.382Z,10.28
2019-04-21T21:48:01.010Z,12.05
2019-04-21T21:50:23.311Z,11.28
2019-04-21T21:52:51.238Z,10.38
2019-04-21T21:55:11.930Z,11.03
2019-04-21T21:57:43.903Z,11.15
2019-04-21T22:00:13.314Z,10.35
2019-04-21T22:02:44.393Z,11.53
2019-04-21T22:05:14.317Z,12.13
2019-04-21T22:07:37.120Z,12.10
2019-04-21T22:10:06.447Z,11.95
2019-04-21T22:12:44.416Z,12.13
2019-04-21T22:15:10.091Z,11.73
2019-04-21T22:17:42.898Z,11.00
2019-04-21T22:20:17.089Z,11.08
2019-04-21T22:22:38.913Z,11.12
2019-04-21T22:25:09.076Z,11.00
2019-04-21T22:27:25.518Z,10.23
2019-04-21T22:29:57.174Z,10.78
2019-04-21T22:32:27.075Z,10.70
2019-04-21T22:34:54.726Z,11.20
2019-04-21T22:37:34.841Z,11.48
2019-04-21T22:40:02.150Z,10.78
2019-04-21T22:42:23.457Z,11.10
2019-04-21T22:44:44.506Z,10.85
2019-04-21T22:47:17.721Z,10.80
2019-04-21T22:49:40.935Z,10.78
2019-04-21T22:52:13.938Z,12.75
2019-04-21T22:54:40.903Z,11.80
2019-04-21T22:57:12.802Z,10.90
2019-04-21T22:59:35.689Z,15.10
2019-04-21T23:02:06.363Z,13.60
2019-04-21T23:04:39.074Z,11.08
2019-04-21T23:07:07.030Z,11.80
2019-04-21T23:09:30.741Z,12.13
2019-04-21T23:11:59.553Z,11.97
2019-04-21T23:14:27.971Z,11.68
2019-04-21T23:17:14.955Z,10.38
2019-04-21T23:19:37.694Z,10.35
2019-04-21T23:22:12.110Z,10.95
2019-04-21T23:24:43.479Z,10.72
2019-04-21T23:26:59.810Z,9.03
2019-04-21T23:29:47.875Z,9.73
2019-04-21T23:32:03.208Z,9.65
2019-04-21T23:34:23.173Z,9.35
2019-04-21T23:36:53.028Z,9.43
2019-04-21T23:39:21.075Z,9.75
2019-04-21T23:41:47.904Z,9.30
2019-04-21T23:44:13.678Z,7.90
2019-04-21T23:46:40.513Z,8.70
2019-04-21T23:49:39.285Z,8.73
2019-04-21T23:52:01.461Z,8.70
2019-04-21T23:54:25.207Z,9.35
2019-04-21T23:56:53.585Z,8.98
2019-04-21T23:59:20.756Z,10.08
